createdAt,value
2022-12-18T00:01:20.719Z,6.03
2022-12-18T00:04:52.579Z,7.93
2022-12-18T00:08:24.648Z,4.32
2022-12-18T00:11:56.353Z,6.10
2022-12-18T00:15:28.282Z,3.33
2022-12-18T00:19:01.174Z,4.97
2022-12-18T00:22:33.327Z,5.40
2022-12-18T00:26:07.642Z,6.47
2022-12-18T00:29:39.821Z,5.78
2022-12-18T00:33:11.873Z,7.93
2022-12-18T00:36:43.993Z,7.60
2022-12-18T00:40:15.735Z,8.05
2022-12-18T00:43:47.830Z,5.88
2022-12-18T00:47:19.447Z,7.57
2022-12-18T00:50:52.436Z,4.87
2022-12-18T00:54:24.416Z,8.30
2022-12-18T00:57:56.287Z,7.22
2022-12-18T01:01:28.160Z,5.00
2022-12-18T01:05:00.258Z,5.60
2022-12-18T01:08:32.058Z,3.88
2022-12-18T01:12:04.263Z,7.90
2022-12-18T01:15:36.019Z,7.45
2022-12-18T01:19:08.340Z,6.78
2022-12-18T01:22:40.252Z,6.80
2022-12-18T01:26:15.197Z,9.73
2022-12-18T01:29:47.008Z,7.35
2022-12-18T01:33:18.933Z,8.68
2022-12-18T01:36:53.207Z,8.50
2022-12-18T01:40:25.331Z,3.97
2022-12-18T01:43:58.634Z,8.13
2022-12-18T01:47:42.289Z,9.13
2022-12-18T01:51:15.173Z,9.35
2022-12-18T01:54:49.745Z,4.35
2022-12-18T01:58:28.516Z,6.85
2022-12-18T02:02:01.791Z,2.37
2022-12-18T02:05:59.900Z,6.18
2022-12-18T02:09:37.698Z,4.82
2022-12-18T02:13:15.274Z,4.97
2022-12-18T02:16:52.693Z,7.55
2022-12-18T02:20:39.386Z,8.35
2022-12-18T02:24:38.226Z,10.17
2022-12-18T02:28:13.902Z,8.73
2022-12-18T02:31:53.651Z,7.32
2022-12-18T02:35:30.005Z,3.05
2022-12-18T02:39:03.100Z,5.13
2022-12-18T02:42:34.862Z,6.75
2022-12-18T02:46:31.733Z,2.25
2022-12-18T02:50:29.777Z,4.20
2022-12-18T02:54:21.627Z,2.97
2022-12-18T02:57:58.094Z,7.32
2022-12-18T03:01:46.214Z,2.77
2022-12-18T03:05:22.441Z,5.50
2022-12-18T03:09:00.193Z,2.55
2022-12-18T03:12:36.409Z,4.68
2022-12-18T03:16:12.082Z,3.83
2022-12-18T03:19:46.101Z,5.53
2022-12-18T03:23:26.286Z,5.05
2022-12-18T03:27:04.382Z,1.93
2022-12-18T03:30:39.461Z,4.72
2022-12-18T03:34:18.524Z,5.82
2022-12-18T03:37:50.719Z,2.87
2022-12-18T03:41:39.159Z,6.15
2022-12-18T03:45:25.116Z,2.97
2022-12-18T03:49:02.563Z,4.90
2022-12-18T03:52:53.172Z,5.43
2022-12-18T03:56:29.730Z,6.30
2022-12-18T04:00:07.006Z,4.72
2022-12-18T04:03:39.255Z,4.50
2022-12-18T04:07:14.325Z,2.92
2022-12-18T04:10:46.009Z,4.28
2022-12-18T04:14:18.635Z,7.47
2022-12-18T04:17:51.568Z,5.68
2022-12-18T04:21:23.897Z,6.22
2022-12-18T04:24:55.610Z,7.53
2022-12-18T04:28:27.770Z,6.67
2022-12-18T04:31:59.405Z,5.75
2022-12-18T04:35:32.070Z,3.55
2022-12-18T04:39:03.951Z,4.03
2022-12-18T04:42:35.999Z,3.40
2022-12-18T04:46:09.528Z,1.75
2022-12-18T04:49:41.833Z,3.07
2022-12-18T04:53:13.552Z,4.03
2022-12-18T04:56:45.580Z,4.18
2022-12-18T05:00:18.063Z,6.20
2022-12-18T05:03:52.144Z,3.93
2022-12-18T05:07:24.053Z,6.70
2022-12-18T05:11:01.092Z,4.68
2022-12-18T05:14:32.803Z,4.33
2022-12-18T05:18:05.233Z,5.80
2022-12-18T05:21:36.989Z,4.88
2022-12-18T05:25:09.683Z,7.40
2022-12-18T05:28:41.440Z,5.32
2022-12-18T05:32:13.930Z,6.32
2022-12-18T05:35:51.150Z,6.38
2022-12-18T05:39:23.690Z,3.67
2022-12-18T05:42:55.775Z,3.60
2022-12-18T05:46:28.467Z,4.43
2022-12-18T05:50:00.331Z,4.93
2022-12-18T05:53:33.207Z,3.33
2022-12-18T05:57:05.095Z,5.50
2022-12-18T06:00:42.522Z,4.80
2022-12-18T06:04:14.248Z,5.78
2022-12-18T06:07:46.467Z,8.77
2022-12-18T06:11:21.462Z,5.30
2022-12-18T06:14:53.480Z,5.33
2022-12-18T06:18:25.124Z,5.00
2022-12-18T06:21:59.020Z,2.67
2022-12-18T06:25:30.712Z,4.57
2022-12-18T06:29:02.748Z,3.70
2022-12-18T06:32:34.430Z,6.80
2022-12-18T06:36:09.635Z,2.53
2022-12-18T06:39:41.330Z,6.40
2022-12-18T06:43:13.350Z,6.30
2022-12-18T06:46:45.278Z,9.63
2022-12-18T06:50:17.368Z,7.67
2022-12-18T06:53:49.208Z,3.28
2022-12-18T06:57:21.211Z,3.33
2022-12-18T07:00:53.009Z,4.57
2022-12-18T07:04:31.904Z,4.13
2022-12-18T07:08:03.889Z,5.70
2022-12-18T07:11:36.400Z,6.37
2022-12-18T07:15:08.528Z,4.47
2022-12-18T07:18:41.012Z,7.55
2022-12-18T07:22:12.797Z,3.72
2022-12-18T07:25:44.863Z,6.63
2022-12-18T07:29:16.662Z,7.45
2022-12-18T07:32:48.640Z,6.63
2022-12-18T07:36:20.801Z,4.70
2022-12-18T07:39:52.802Z,4.55
2022-12-18T07:43:24.669Z,2.38
2022-12-18T07:46:56.739Z,4.83
2022-12-18T07:50:28.618Z,6.75
2022-12-18T07:54:00.922Z,3.63
2022-12-18T07:58:01.537Z,2.92
2022-12-18T08:01:24.951Z,5.50
2022-12-18T08:04:56.973Z,5.20
2022-12-18T08:08:30.161Z,6.50
2022-12-18T08:12:02.026Z,3.70
2022-12-18T08:15:33.992Z,4.57
2022-12-18T08:19:05.685Z,4.38
2022-12-18T08:22:38.853Z,5.30
2022-12-18T08:26:14.279Z,5.10
2022-12-18T08:29:46.352Z,7.72
2022-12-18T08:33:18.163Z,6.40
2022-12-18T08:36:50.182Z,2.57
2022-12-18T08:40:23.369Z,5.93
2022-12-18T08:44:13.875Z,8.18
2022-12-18T08:47:45.729Z,5.03
2022-12-18T08:51:20.322Z,6.18
2022-12-18T08:54:52.017Z,8.35
2022-12-18T08:58:24.081Z,3.80
2022-12-18T09:01:56.687Z,3.38
2022-12-18T09:05:28.919Z,7.20
2022-12-18T09:09:00.854Z,6.07
2022-12-18T09:12:33.829Z,4.47
2022-12-18T09:16:06.045Z,6.20
2022-12-18T09:19:38.944Z,4.72
2022-12-18T09:23:11.055Z,8.90
2022-12-18T09:26:43.367Z,8.90
2022-12-18T09:30:19.432Z,7.75
2022-12-18T09:33:52.060Z,12.03
2022-12-18T09:37:24.453Z,11.95
2022-12-18T09:41:00.918Z,4.80
2022-12-18T09:44:40.125Z,4.80
2022-12-18T09:48:23.407Z,6.47
2022-12-18T09:52:10.478Z,7.13
2022-12-18T09:55:47.336Z,7.95
2022-12-18T09:59:27.711Z,3.30
2022-12-18T10:03:04.546Z,7.57
2022-12-18T10:06:48.613Z,3.60
2022-12-18T10:10:43.254Z,3.63
2022-12-18T10:14:36.017Z,5.57
2022-12-18T10:18:21.903Z,5.35
2022-12-18T10:22:18.461Z,4.25
2022-12-18T10:25:59.699Z,5.53
2022-12-18T10:29:31.653Z,8.23
2022-12-18T10:33:04.229Z,6.90
2022-12-18T10:36:36.062Z,5.40
2022-12-18T10:40:21.766Z,6.18
2022-12-18T10:44:11.713Z,6.53
2022-12-18T10:47:46.779Z,7.73
2022-12-18T10:51:27.720Z,5.35
2022-12-18T10:55:05.499Z,6.72
2022-12-18T10:58:39.432Z,6.38
2022-12-18T11:02:26.506Z,6.03
2022-12-18T11:06:12.251Z,4.55
2022-12-18T11:09:44.365Z,4.90
2022-12-18T11:13:22.698Z,6.97
2022-12-18T11:21:08.604Z,6.57
2022-12-18T11:24:41.207Z,10.50
2022-12-18T11:28:50.435Z,11.30
2022-12-18T11:32:26.269Z,11.73
2022-12-18T11:36:04.719Z,6.53
2022-12-18T11:40:14.433Z,8.17
2022-12-18T11:43:59.854Z,9.15
2022-12-18T11:47:47.197Z,9.30
2022-12-18T11:51:27.814Z,9.77
2022-12-18T11:55:01.987Z,10.07
2022-12-18T11:58:48.443Z,5.38
2022-12-18T12:02:58.189Z,4.37
2022-12-18T12:06:37.949Z,3.28
2022-12-18T12:10:10.057Z,4.85
2022-12-18T12:13:57.885Z,7.68
2022-12-18T12:17:43.737Z,4.40
2022-12-18T12:21:21.476Z,4.35
2022-12-18T12:25:04.546Z,6.85
2022-12-18T12:28:50.490Z,4.10
2022-12-18T12:32:46.313Z,5.47
2022-12-18T12:36:37.685Z,7.97
2022-12-18T12:40:48.296Z,9.40
2022-12-18T12:44:13.189Z,10.13
2022-12-18T12:47:48.288Z,5.25
2022-12-18T12:51:41.551Z,4.05
2022-12-18T12:55:21.505Z,8.07
2022-12-18T12:59:12.891Z,4.97
2022-12-18T13:03:18.197Z,6.75
2022-12-18T13:07:24.663Z,7.23
2022-12-18T13:11:17.761Z,6.65
2022-12-18T13:14:51.684Z,8.85
2022-12-18T13:18:26.393Z,11.20
2022-12-18T13:21:58.074Z,11.85
2022-12-18T13:25:36.545Z,12.82
2022-12-18T13:29:08.381Z,11.30
2022-12-18T13:32:40.705Z,8.20
2022-12-18T13:36:16.985Z,7.60
2022-12-18T13:39:49.175Z,9.68
2022-12-18T13:43:21.188Z,10.60
2022-12-18T13:46:54.408Z,6.30
2022-12-18T13:50:30.983Z,4.68
2022-12-18T13:54:15.011Z,7.03
2022-12-18T13:57:47.282Z,11.07
2022-12-18T14:01:24.574Z,14.07
2022-12-18T14:04:56.532Z,11.10
2022-12-18T14:08:36.058Z,14.70
2022-12-18T14:12:46.203Z,14.75
2022-12-18T14:16:20.345Z,11.70
2022-12-18T14:19:52.628Z,13.87
2022-12-18T14:23:30.522Z,12.52
2022-12-18T14:27:20.611Z,12.93
2022-12-18T14:30:53.927Z,10.53
2022-12-18T14:34:27.850Z,10.95
2022-12-18T14:38:25.336Z,12.15
2022-12-18T14:41:57.163Z,14.25
2022-12-18T14:45:44.369Z,8.77
2022-12-18T14:49:28.352Z,10.98
2022-12-18T14:53:00.594Z,14.65
2022-12-18T14:56:35.299Z,10.47
2022-12-18T15:00:16.772Z,12.65
2022-12-18T15:03:48.844Z,11.82
2022-12-18T15:07:24.022Z,12.60
2022-12-18T15:10:57.664Z,8.13
2022-12-18T15:14:32.151Z,12.88
2022-12-18T15:18:15.389Z,13.02
2022-12-18T15:21:47.671Z,13.17
2022-12-18T15:25:34.018Z,15.15
2022-12-18T15:29:09.076Z,12.15
2022-12-18T15:32:43.195Z,14.27
2022-12-18T15:36:16.931Z,10.98
2022-12-18T15:39:53.003Z,12.57
2022-12-18T15:43:35.714Z,10.80
2022-12-18T15:47:14.425Z,8.35
2022-12-18T15:50:46.589Z,8.27
2022-12-18T15:54:19.186Z,10.25
2022-12-18T15:57:51.687Z,11.40
2022-12-18T16:01:28.840Z,15.88
2022-12-18T16:05:01.133Z,14.38
2022-12-18T16:08:33.147Z,13.97
2022-12-18T16:12:07.221Z,15.40
2022-12-18T16:15:38.953Z,13.60
2022-12-18T16:19:11.196Z,13.33
2022-12-18T16:22:46.842Z,14.70
2022-12-18T16:26:19.155Z,12.07
2022-12-18T16:29:51.602Z,9.32
2022-12-18T16:33:23.670Z,11.57
2022-12-18T16:37:05.218Z,14.02
2022-12-18T16:40:59.146Z,13.45
2022-12-18T16:44:30.874Z,15.03
2022-12-18T16:48:02.988Z,15.30
2022-12-18T16:51:34.770Z,12.10
2022-12-18T16:55:07.522Z,13.93
2022-12-18T16:58:39.302Z,14.60
2022-12-18T17:02:22.202Z,11.77
2022-12-18T17:05:55.740Z,10.77
2022-12-18T17:09:27.786Z,11.83
2022-12-18T17:13:00.215Z,9.23
2022-12-18T17:16:32.359Z,12.27
2022-12-18T17:20:05.554Z,10.73
2022-12-18T17:23:38.009Z,10.05
2022-12-18T17:27:10.039Z,9.98
2022-12-18T17:30:42.005Z,10.20
2022-12-18T17:34:14.934Z,10.77
2022-12-18T17:37:48.586Z,9.73
2022-12-18T17:41:20.912Z,8.48
2022-12-18T17:44:53.029Z,7.30
2022-12-18T17:48:24.994Z,10.63
2022-12-18T17:51:57.224Z,15.18
2022-12-18T17:55:29.051Z,10.90
2022-12-18T17:59:01.352Z,14.45
2022-12-18T18:02:33.355Z,13.45
2022-12-18T18:06:06.949Z,13.03
2022-12-18T18:09:38.575Z,13.30
2022-12-18T18:13:46.643Z,12.93
2022-12-18T18:17:19.090Z,10.82
2022-12-18T18:20:51.734Z,13.30
2022-12-18T18:24:26.098Z,12.05
2022-12-18T18:27:58.112Z,10.73
2022-12-18T18:31:31.300Z,10.13
2022-12-18T18:35:03.534Z,12.93
2022-12-18T18:38:35.287Z,13.10
2022-12-18T18:42:07.703Z,13.77
2022-12-18T18:45:39.443Z,12.15
2022-12-18T18:49:14.453Z,16.17
2022-12-18T18:52:46.290Z,13.35
2022-12-18T19:00:14.217Z,13.93
2022-12-18T19:03:48.011Z,13.43
2022-12-18T19:07:30.371Z,11.57
2022-12-18T19:11:04.989Z,11.25
2022-12-18T19:14:36.849Z,14.75
2022-12-18T19:18:08.765Z,8.60
2022-12-18T19:21:40.950Z,13.77
2022-12-18T19:25:13.005Z,14.32
2022-12-18T19:28:45.169Z,13.60
2022-12-18T19:32:17.295Z,13.73
2022-12-18T19:35:49.547Z,14.55
2022-12-18T19:39:21.844Z,13.23
2022-12-18T19:42:53.512Z,10.00
2022-12-18T19:46:29.756Z,10.10
2022-12-18T19:50:01.681Z,10.95
2022-12-18T19:53:33.941Z,12.90
2022-12-18T19:57:08.135Z,12.13
2022-12-18T20:00:40.100Z,10.40
2022-12-18T20:04:11.931Z,12.73
2022-12-18T20:07:44.083Z,14.80
2022-12-18T20:11:17.174Z,13.65
2022-12-18T20:14:49.302Z,12.55
2022-12-18T20:18:21.538Z,11.47
2022-12-18T20:21:53.290Z,14.20
2022-12-18T20:25:25.409Z,13.18
2022-12-18T20:28:57.239Z,11.83
2022-12-18T20:32:33.969Z,12.40
2022-12-18T20:36:13.343Z,9.02
2022-12-18T20:39:46.445Z,11.20
2022-12-18T20:43:18.139Z,9.27
2022-12-18T20:47:04.992Z,14.75
2022-12-18T20:50:43.338Z,13.13
2022-12-18T20:54:16.035Z,12.93
2022-12-18T20:57:48.306Z,11.70
2022-12-18T21:01:21.517Z,12.65
2022-12-18T21:04:54.432Z,10.90
2022-12-18T21:08:26.720Z,10.68
2022-12-18T21:12:17.517Z,8.25
2022-12-18T21:15:49.477Z,10.68
2022-12-18T21:19:24.217Z,11.57
2022-12-18T21:22:57.719Z,10.60
2022-12-18T21:26:41.870Z,9.40
2022-12-18T21:30:17.250Z,11.17
2022-12-18T21:33:49.477Z,10.45
2022-12-18T21:37:24.930Z,11.48
2022-12-18T21:40:56.850Z,12.73
2022-12-18T21:44:29.370Z,11.30
2022-12-18T21:48:01.109Z,10.70
2022-12-18T21:51:34.111Z,13.43
2022-12-18T21:55:09.546Z,8.87
2022-12-18T21:58:56.911Z,14.48
2022-12-18T22:02:29.277Z,11.57
2022-12-18T22:06:06.773Z,12.13
2022-12-18T22:09:41.683Z,9.02
2022-12-18T22:13:13.645Z,10.50
2022-12-18T22:16:46.828Z,11.63
2022-12-18T22:20:20.477Z,13.60
2022-12-18T22:24:04.357Z,13.52
2022-12-18T22:27:37.330Z,13.23
2022-12-18T22:31:09.378Z,12.93
2022-12-18T22:34:42.548Z,12.90
2022-12-18T22:38:14.284Z,12.65
2022-12-18T22:41:46.554Z,10.47
2022-12-18T22:45:18.657Z,16.08
2022-12-18T22:48:50.654Z,13.07
2022-12-18T22:52:22.565Z,13.87
2022-12-18T22:56:02.826Z,12.23
2022-12-18T22:59:34.934Z,12.40
2022-12-18T23:03:07.289Z,13.45
2022-12-18T23:06:39.898Z,15.20
2022-12-18T23:10:11.940Z,13.85
2022-12-18T23:13:44.484Z,14.20
2022-12-18T23:17:16.519Z,13.53
2022-12-18T23:20:48.555Z,10.85
2022-12-18T23:24:20.925Z,15.00
2022-12-18T23:27:52.973Z,16.90
2022-12-18T23:31:28.280Z,12.20
2022-12-18T23:34:59.988Z,15.00
2022-12-18T23:38:33.429Z,12.85
2022-12-18T23:42:05.320Z,12.57
2022-12-18T23:45:38.586Z,12.73
2022-12-18T23:49:11.323Z,13.07
2022-12-18T23:52:43.503Z,13.87
2022-12-18T23:56:15.375Z,15.60
2022-12-18T23:59:47.519Z,14.90
